createdAt,value
2023-05-21T00:00:27.744Z,4.40
2023-05-21T00:02:56.408Z,6.63
2023-05-21T00:05:26.771Z,5.20
2023-05-21T00:07:56.127Z,2.58
2023-05-21T00:10:24.696Z,5.60
2023-05-21T00:12:53.437Z,5.03
2023-05-21T00:15:22.014Z,4.60
2023-05-21T00:17:50.728Z,4.20
2023-05-21T00:20:19.374Z,8.73
2023-05-21T00:22:49.405Z,9.00
2023-05-21T00:25:18.105Z,5.30
2023-05-21T00:27:46.688Z,7.50
2023-05-21T00:30:16.456Z,4.22
2023-05-21T00:32:45.227Z,3.28
2023-05-21T00:35:14.180Z,3.45
2023-05-21T00:37:42.947Z,3.22
2023-05-21T00:40:14.114Z,6.18
2023-05-21T00:45:11.571Z,2.75
2023-05-21T00:47:42.011Z,5.18
2023-05-21T00:50:12.324Z,5.10
2023-05-21T00:52:42.990Z,3.67
2023-05-21T00:55:13.576Z,3.03
2023-05-21T00:57:43.013Z,2.60
2023-05-21T01:00:13.039Z,9.05
2023-05-21T01:02:42.375Z,3.30
2023-05-21T01:05:12.038Z,4.35
2023-05-21T01:07:42.798Z,4.63
2023-05-21T01:10:13.607Z,4.72
2023-05-21T01:12:45.248Z,4.38
2023-05-21T01:15:14.418Z,3.92
2023-05-21T01:17:46.285Z,3.47
2023-05-21T01:20:18.495Z,3.17
2023-05-21T01:22:54.503Z,2.45
2023-05-21T01:25:24.396Z,4.45
2023-05-21T01:27:53.394Z,4.53
2023-05-21T01:30:23.698Z,2.67
2023-05-21T01:33:02.123Z,3.15
2023-05-21T01:35:35.171Z,2.90
2023-05-21T01:38:13.753Z,2.80
2023-05-21T01:40:49.295Z,6.10
2023-05-21T01:43:18.829Z,6.18
2023-05-21T01:45:48.981Z,3.90
2023-05-21T01:48:18.931Z,4.63
2023-05-21T01:50:48.908Z,2.13
2023-05-21T01:53:18.995Z,3.70
2023-05-21T01:55:47.650Z,3.45
2023-05-21T01:58:17.190Z,3.13
2023-05-21T02:00:46.887Z,3.40
2023-05-21T02:03:16.728Z,3.30
2023-05-21T02:05:45.734Z,5.57
2023-05-21T02:08:15.505Z,2.17
2023-05-21T02:10:45.680Z,4.07
2023-05-21T02:13:14.461Z,6.00
2023-05-21T02:15:43.401Z,5.78
2023-05-21T02:18:12.031Z,3.53
2023-05-21T02:20:40.769Z,5.55
2023-05-21T02:23:09.379Z,8.23
2023-05-21T02:25:38.333Z,4.40
2023-05-21T02:28:08.585Z,4.28
2023-05-21T02:30:37.391Z,4.87
2023-05-21T02:33:06.091Z,4.28
2023-05-21T02:35:35.472Z,3.97
2023-05-21T02:38:04.153Z,3.15
2023-05-21T02:40:33.398Z,5.15
2023-05-21T02:43:01.945Z,7.25
2023-05-21T02:45:34.701Z,4.43
2023-05-21T02:48:03.398Z,5.22
2023-05-21T02:50:36.320Z,5.25
2023-05-21T02:53:05.032Z,4.75
2023-05-21T02:55:34.444Z,7.90
2023-05-21T02:58:03.747Z,2.70
2023-05-21T03:00:34.027Z,2.78
2023-05-21T03:03:02.950Z,8.50
2023-05-21T03:05:31.901Z,7.22
2023-05-21T03:08:00.533Z,7.50
2023-05-21T03:10:29.186Z,5.40
2023-05-21T03:12:57.852Z,7.10
2023-05-21T03:15:26.468Z,5.57
2023-05-21T03:17:57.331Z,5.35
2023-05-21T03:20:27.111Z,5.15
2023-05-21T03:22:56.281Z,3.92
2023-05-21T03:25:25.464Z,5.68
2023-05-21T03:27:56.013Z,5.82
2023-05-21T03:30:49.884Z,11.82
2023-05-21T03:33:35.160Z,3.95
2023-05-21T03:36:13.052Z,6.63
2023-05-21T03:38:41.709Z,5.00
2023-05-21T03:41:11.771Z,3.97
2023-05-21T03:43:42.153Z,5.78
2023-05-21T03:46:10.924Z,6.47
2023-05-21T03:49:05.092Z,5.72
2023-05-21T03:51:35.347Z,6.63
2023-05-21T03:54:04.148Z,6.55
2023-05-21T03:56:33.538Z,5.82
2023-05-21T03:59:02.666Z,11.77
2023-05-21T04:01:33.246Z,10.65
2023-05-21T04:06:33.341Z,7.00
2023-05-21T04:09:02.043Z,8.80
2023-05-21T04:11:31.582Z,12.30
2023-05-21T04:14:00.240Z,7.60
2023-05-21T04:16:28.932Z,4.35
2023-05-21T04:18:57.653Z,6.88
2023-05-21T04:21:28.494Z,7.22
2023-05-21T04:23:58.717Z,4.95
2023-05-21T04:26:42.580Z,7.68
2023-05-21T04:29:11.909Z,10.57
2023-05-21T04:31:40.657Z,7.20
2023-05-21T04:34:09.437Z,6.45
2023-05-21T04:36:38.127Z,5.93
2023-05-21T04:39:08.522Z,7.00
2023-05-21T04:41:38.712Z,8.40
2023-05-21T04:44:09.395Z,5.03
2023-05-21T04:46:41.000Z,4.97
2023-05-21T04:49:11.790Z,5.57
2023-05-21T04:51:40.770Z,5.30
2023-05-21T04:54:11.086Z,5.68
2023-05-21T04:56:39.812Z,4.32
2023-05-21T04:59:08.581Z,8.15
2023-05-21T05:01:38.743Z,26.90
2023-05-21T05:04:07.848Z,15.02
2023-05-21T05:06:36.670Z,51.47
2023-05-21T05:09:05.959Z,42.05
2023-05-21T05:11:36.230Z,11.50
2023-05-21T05:16:35.835Z,6.28
2023-05-21T05:19:04.686Z,4.53
2023-05-21T05:21:33.448Z,3.75
2023-05-21T05:24:02.426Z,4.28
2023-05-21T05:29:03.508Z,11.23
2023-05-21T05:31:32.353Z,7.82
2023-05-21T05:34:01.440Z,3.42
2023-05-21T05:36:31.655Z,3.25
2023-05-21T05:39:00.512Z,6.38
2023-05-21T05:41:29.357Z,5.68
2023-05-21T05:43:58.037Z,6.25
2023-05-21T05:46:32.341Z,7.18
2023-05-21T05:49:01.162Z,8.13
2023-05-21T05:51:30.415Z,4.15
2023-05-21T05:53:59.288Z,3.40
2023-05-21T05:56:28.124Z,5.30
2023-05-21T05:58:56.764Z,3.17
2023-05-21T06:01:26.501Z,4.60
2023-05-21T06:03:57.584Z,3.08
2023-05-21T06:06:26.839Z,4.60
2023-05-21T06:08:55.783Z,4.28
2023-05-21T06:11:25.849Z,5.57
2023-05-21T06:13:54.459Z,4.50
2023-05-21T06:16:23.832Z,3.65
2023-05-21T06:18:52.572Z,2.28
2023-05-21T06:21:22.748Z,4.93
2023-05-21T06:23:51.390Z,3.93
2023-05-21T06:26:20.489Z,5.15
2023-05-21T06:28:51.105Z,1.85
2023-05-21T06:31:22.638Z,2.90
2023-05-21T06:33:51.510Z,5.90
2023-05-21T06:36:20.300Z,7.05
2023-05-21T06:38:51.016Z,4.10
2023-05-21T06:41:19.671Z,3.93
2023-05-21T06:43:52.780Z,6.05
2023-05-21T06:46:40.239Z,3.85
2023-05-21T06:49:11.879Z,4.05
2023-05-21T06:51:42.249Z,3.80
2023-05-21T06:54:14.462Z,6.43
2023-05-21T06:56:43.692Z,4.32
2023-05-21T06:59:12.439Z,4.90
2023-05-21T07:01:42.811Z,3.08
2023-05-21T07:04:11.862Z,1.92
2023-05-21T07:06:41.953Z,4.43
2023-05-21T07:09:10.728Z,3.60
2023-05-21T07:11:41.378Z,3.65
2023-05-21T07:14:11.552Z,3.03
2023-05-21T07:16:40.628Z,4.53
2023-05-21T07:19:10.200Z,2.55
2023-05-21T07:21:39.368Z,1.80
2023-05-21T07:24:09.471Z,2.55
2023-05-21T07:26:42.357Z,6.88
2023-05-21T07:29:12.650Z,3.80
2023-05-21T07:31:41.375Z,1.88
2023-05-21T07:34:10.130Z,3.30
2023-05-21T07:36:40.772Z,4.40
2023-05-21T07:39:09.599Z,2.80
2023-05-21T07:41:39.506Z,2.37
2023-05-21T07:44:11.702Z,5.65
2023-05-21T07:46:43.755Z,4.00
2023-05-21T07:49:17.152Z,5.23
2023-05-21T07:51:47.743Z,6.03
2023-05-21T07:54:17.673Z,5.07
2023-05-21T07:56:47.109Z,7.22
2023-05-21T07:59:31.984Z,4.82
2023-05-21T08:02:01.082Z,3.38
2023-05-21T08:04:29.777Z,2.42
2023-05-21T08:06:58.417Z,5.35
2023-05-21T08:09:26.952Z,4.80
2023-05-21T08:11:55.804Z,2.03
2023-05-21T08:14:24.310Z,2.10
2023-05-21T08:16:54.358Z,3.53
2023-05-21T08:19:23.236Z,4.00
2023-05-21T08:21:53.063Z,3.92
2023-05-21T08:24:23.439Z,3.92
2023-05-21T08:26:53.615Z,6.80
2023-05-21T08:29:22.273Z,7.53
2023-05-21T08:31:51.130Z,3.60
2023-05-21T08:34:21.188Z,1.75
2023-05-21T08:36:59.615Z,7.03
2023-05-21T08:39:50.987Z,4.97
2023-05-21T08:45:07.331Z,4.20
2023-05-21T08:47:37.652Z,2.80
2023-05-21T08:50:11.824Z,2.10
2023-05-21T08:52:41.089Z,2.25
2023-05-21T08:55:10.955Z,3.70
2023-05-21T09:00:12.607Z,2.63
2023-05-21T09:02:44.251Z,3.63
2023-05-21T09:05:16.163Z,3.10
2023-05-21T09:07:51.061Z,3.33
2023-05-21T09:10:37.647Z,3.53
2023-05-21T09:13:08.159Z,5.25
2023-05-21T09:15:37.789Z,4.00
2023-05-21T09:18:07.815Z,4.45
2023-05-21T09:20:47.159Z,3.28
2023-05-21T09:23:19.094Z,3.65
2023-05-21T09:25:49.659Z,4.07
2023-05-21T09:28:26.802Z,3.42
2023-05-21T09:30:55.400Z,3.88
2023-05-21T09:33:29.842Z,5.22
2023-05-21T09:36:00.467Z,7.65
2023-05-21T09:38:29.665Z,3.58
2023-05-21T09:40:58.913Z,2.88
2023-05-21T09:43:28.711Z,6.32
2023-05-21T09:46:00.417Z,4.47
2023-05-21T09:48:37.314Z,4.60
2023-05-21T09:51:14.917Z,5.93
2023-05-21T09:53:50.108Z,7.40
2023-05-21T09:56:23.809Z,4.97
2023-05-21T09:58:56.106Z,4.75
2023-05-21T10:01:26.242Z,3.38
2023-05-21T10:03:57.689Z,3.50
2023-05-21T10:06:28.953Z,8.85
2023-05-21T10:08:59.536Z,3.65
2023-05-21T10:11:32.066Z,2.88
2023-05-21T10:14:06.244Z,3.90
2023-05-21T10:16:36.468Z,5.55
2023-05-21T10:19:06.195Z,2.67
2023-05-21T10:21:36.492Z,6.00
2023-05-21T10:24:05.669Z,5.38
2023-05-21T10:26:34.670Z,4.45
2023-05-21T10:29:04.447Z,3.38
2023-05-21T10:31:33.584Z,5.03
2023-05-21T10:34:06.230Z,4.25
2023-05-21T10:36:38.031Z,3.53
2023-05-21T10:39:09.857Z,4.47
2023-05-21T10:41:49.825Z,3.05
2023-05-21T10:44:28.482Z,2.38
2023-05-21T10:47:15.413Z,2.25
2023-05-21T10:50:00.675Z,5.05
2023-05-21T10:52:52.073Z,5.15
2023-05-21T10:55:34.990Z,4.15
2023-05-21T10:58:33.906Z,11.00
2023-05-21T11:01:04.407Z,4.80
2023-05-21T11:03:37.408Z,2.50
2023-05-21T11:06:08.821Z,2.88
2023-05-21T11:11:07.782Z,2.92
2023-05-21T11:13:51.170Z,3.20
2023-05-21T11:16:22.321Z,2.13
2023-05-21T11:19:04.463Z,3.13
2023-05-21T11:21:36.206Z,3.03
2023-05-21T11:24:11.303Z,7.18
2023-05-21T11:27:05.020Z,3.17
2023-05-21T11:29:44.655Z,7.93
2023-05-21T11:32:15.641Z,4.20
2023-05-21T11:34:47.288Z,5.78
2023-05-21T11:37:34.620Z,3.35
2023-05-21T11:40:31.172Z,3.70
2023-05-21T11:42:59.800Z,11.48
2023-05-21T11:45:32.249Z,8.40
2023-05-21T11:48:01.684Z,5.38
2023-05-21T11:50:33.972Z,4.75
2023-05-21T11:53:02.859Z,18.33
2023-05-21T11:55:33.391Z,30.92
2023-05-21T11:58:02.988Z,20.98
2023-05-21T12:00:31.530Z,53.17
2023-05-21T12:03:00.224Z,16.80
2023-05-21T12:05:29.121Z,11.48
2023-05-21T12:07:58.615Z,3.50
2023-05-21T12:10:27.418Z,4.68
2023-05-21T12:12:57.837Z,4.45
2023-05-21T12:15:28.341Z,3.65
2023-05-21T12:17:58.092Z,2.83
2023-05-21T12:20:29.878Z,2.95
2023-05-21T12:23:01.655Z,2.50
2023-05-21T12:25:32.229Z,5.53
2023-05-21T12:28:03.772Z,2.83
2023-05-21T12:30:32.966Z,3.13
2023-05-21T12:33:03.344Z,4.25
2023-05-21T12:35:32.756Z,3.80
2023-05-21T12:38:03.292Z,2.22
2023-05-21T12:40:39.598Z,3.03
2023-05-21T12:43:10.286Z,6.03
2023-05-21T12:45:41.076Z,2.42
2023-05-21T12:48:10.006Z,6.68
2023-05-21T12:50:42.225Z,3.78
2023-05-21T12:53:11.400Z,3.05
2023-05-21T12:55:40.825Z,6.05
2023-05-21T12:58:15.663Z,5.60
2023-05-21T13:00:45.683Z,4.85
2023-05-21T13:03:14.685Z,6.32
2023-05-21T13:05:43.359Z,2.58
2023-05-21T13:08:14.572Z,2.08
2023-05-21T13:10:43.504Z,7.73
2023-05-21T13:13:13.512Z,3.95
2023-05-21T13:15:42.080Z,9.75
2023-05-21T13:18:12.635Z,7.60
2023-05-21T13:20:41.340Z,3.53
2023-05-21T13:23:11.446Z,3.85
2023-05-21T13:25:41.368Z,2.22
2023-05-21T13:28:10.708Z,1.92
2023-05-21T13:30:40.863Z,3.95
2023-05-21T13:33:09.571Z,7.63
2023-05-21T13:35:38.158Z,3.22
2023-05-21T13:38:06.681Z,2.92
2023-05-21T13:40:38.064Z,3.67
2023-05-21T13:43:07.445Z,7.32
2023-05-21T13:45:36.050Z,3.40
2023-05-21T13:48:06.779Z,6.97
2023-05-21T13:50:35.747Z,3.80
2023-05-21T13:53:04.574Z,8.02
2023-05-21T13:55:33.095Z,3.00
2023-05-21T13:58:01.556Z,2.17
2023-05-21T14:00:30.034Z,3.58
2023-05-21T14:02:58.854Z,6.93
2023-05-21T14:05:28.923Z,7.32
2023-05-21T14:07:57.384Z,2.20
2023-05-21T14:10:26.103Z,2.53
2023-05-21T14:12:59.212Z,2.30
2023-05-21T14:15:33.673Z,4.10
2023-05-21T14:18:02.319Z,7.32
2023-05-21T14:20:32.393Z,3.28
2023-05-21T14:23:01.012Z,9.82
2023-05-21T14:25:29.679Z,2.95
2023-05-21T14:27:58.372Z,4.40
2023-05-21T14:30:26.929Z,5.57
2023-05-21T14:32:57.815Z,4.43
2023-05-21T14:35:26.556Z,3.88
2023-05-21T14:37:56.590Z,2.75
2023-05-21T14:40:25.218Z,2.40
2023-05-21T14:42:54.491Z,6.40
2023-05-21T14:45:23.149Z,12.82
2023-05-21T14:47:51.897Z,11.43
2023-05-21T14:50:20.495Z,25.90
2023-05-21T14:52:49.076Z,9.98
2023-05-21T14:55:22.523Z,62.25
2023-05-21T14:57:51.257Z,3.63
2023-05-21T15:00:19.995Z,163.05
2023-05-21T15:02:48.940Z,52.28
2023-05-21T15:05:17.745Z,10.05
2023-05-21T15:07:46.331Z,9.80
2023-05-21T15:10:17.280Z,10.32
2023-05-21T15:12:48.745Z,25.80
2023-05-21T15:15:17.519Z,15.00
2023-05-21T15:17:46.288Z,4.15
2023-05-21T15:20:15.659Z,2.90
2023-05-21T15:22:44.300Z,3.83
2023-05-21T15:25:13.159Z,12.70
2023-05-21T15:27:41.903Z,5.18
2023-05-21T15:30:12.702Z,4.43
2023-05-21T15:35:10.494Z,9.77
2023-05-21T15:37:39.163Z,4.55
2023-05-21T15:40:09.440Z,4.53
2023-05-21T15:42:38.033Z,3.22
2023-05-21T15:45:07.514Z,175.25
2023-05-21T15:47:42.719Z,208.63
2023-05-21T15:50:12.677Z,27.85
2023-05-21T15:52:43.003Z,95.18
2023-05-21T15:55:11.721Z,950.08
2023-05-21T15:57:40.338Z,1999.90
2023-05-21T16:00:11.021Z,1570.22
2023-05-21T16:02:42.299Z,254.07
2023-05-21T16:05:11.535Z,77.45
2023-05-21T16:07:40.098Z,23.42
2023-05-21T16:10:11.728Z,19.50
2023-05-21T16:12:40.514Z,121.75
2023-05-21T16:15:09.928Z,321.63
2023-05-21T16:17:38.689Z,148.13
2023-05-21T16:20:09.906Z,56.83
2023-05-21T16:22:38.558Z,15.27
2023-05-21T16:25:08.251Z,14.02
2023-05-21T16:27:36.800Z,2.85
2023-05-21T16:30:07.619Z,31.40
2023-05-21T16:35:05.009Z,5.63
2023-05-21T16:37:35.560Z,4.80
2023-05-21T16:40:04.879Z,4.78
2023-05-21T16:42:33.442Z,5.20
2023-05-21T16:45:02.043Z,7.38
2023-05-21T16:47:30.620Z,87.65
2023-05-21T16:49:59.290Z,17.20
2023-05-21T16:52:28.046Z,7.90
2023-05-21T16:54:58.087Z,2.20
2023-05-21T16:57:26.626Z,7.32
2023-05-21T16:59:55.224Z,3.92
2023-05-21T17:02:24.604Z,2.83
2023-05-21T17:04:53.195Z,6.05
2023-05-21T17:07:21.962Z,2.55
2023-05-21T17:09:50.837Z,4.85
2023-05-21T17:12:20.888Z,2.30
2023-05-21T17:14:49.463Z,1.98
2023-05-21T17:17:18.045Z,6.15
2023-05-21T17:19:46.609Z,6.90
2023-05-21T17:22:15.617Z,3.42
2023-05-21T17:24:44.241Z,4.45
2023-05-21T17:27:12.945Z,3.03
2023-05-21T17:29:42.954Z,2.03
2023-05-21T17:32:12.526Z,4.30
2023-05-21T17:34:41.123Z,7.22
2023-05-21T17:37:09.747Z,3.95
2023-05-21T17:39:38.285Z,4.70
2023-05-21T17:42:07.413Z,3.92
2023-05-21T17:44:36.025Z,5.70
2023-05-21T17:47:08.305Z,4.45
2023-05-21T17:49:36.972Z,7.32
2023-05-21T17:52:06.024Z,4.25
2023-05-21T17:54:35.253Z,4.82
2023-05-21T17:57:04.076Z,4.20
2023-05-21T17:59:32.768Z,5.03
2023-05-21T18:02:02.398Z,3.03
2023-05-21T18:04:32.445Z,2.92
2023-05-21T18:07:01.327Z,3.67
2023-05-21T18:09:30.010Z,3.67
2023-05-21T18:11:59.841Z,3.38
2023-05-21T18:14:29.479Z,2.63
2023-05-21T18:16:58.193Z,6.55
2023-05-21T18:19:26.929Z,2.70
2023-05-21T18:21:57.145Z,4.43
2023-05-21T18:24:25.966Z,3.63
2023-05-21T18:26:54.535Z,2.38
2023-05-21T18:29:23.081Z,3.47
2023-05-21T18:31:51.826Z,4.55
2023-05-21T18:34:20.297Z,2.70
2023-05-21T18:36:48.863Z,2.97
2023-05-21T18:39:18.838Z,3.10
2023-05-21T18:41:47.314Z,3.20
2023-05-21T18:44:16.335Z,4.68
2023-05-21T18:46:45.468Z,4.68
2023-05-21T18:49:13.988Z,3.80
2023-05-21T18:51:42.621Z,8.00
2023-05-21T18:54:11.228Z,3.20
2023-05-21T18:56:41.298Z,6.85
2023-05-21T18:59:09.941Z,4.18
2023-05-21T19:01:38.553Z,6.20
2023-05-21T19:04:07.114Z,3.72
2023-05-21T19:06:36.114Z,4.50
2023-05-21T19:09:04.979Z,3.03
2023-05-21T19:11:34.608Z,6.97
2023-05-21T19:14:04.737Z,5.05
2023-05-21T19:16:33.436Z,2.88
2023-05-21T19:19:02.504Z,3.85
2023-05-21T19:21:31.687Z,5.90
2023-05-21T19:24:00.332Z,4.40
2023-05-21T19:26:29.127Z,3.95
2023-05-21T19:28:57.779Z,3.17
2023-05-21T19:31:28.059Z,2.85
2023-05-21T19:33:56.786Z,3.70
2023-05-21T19:36:26.881Z,3.78
2023-05-21T19:38:59.049Z,5.10
2023-05-21T19:41:27.902Z,4.22
2023-05-21T19:43:56.422Z,10.10
2023-05-21T19:46:25.274Z,2.85
2023-05-21T19:48:55.282Z,3.92
2023-05-21T19:51:24.008Z,3.47
2023-05-21T19:53:52.723Z,3.85
2023-05-21T19:56:22.117Z,4.07
2023-05-21T19:58:50.769Z,6.38
2023-05-21T20:01:19.565Z,2.08
2023-05-21T20:03:48.453Z,3.13
2023-05-21T20:06:20.876Z,2.60
2023-05-21T20:08:49.446Z,2.60
2023-05-21T20:11:18.000Z,3.92
2023-05-21T20:13:50.261Z,3.55
2023-05-21T20:16:20.279Z,2.80
2023-05-21T20:18:49.305Z,2.53
2023-05-21T20:21:20.510Z,3.17
2023-05-21T20:23:49.887Z,4.05
2023-05-21T20:26:19.773Z,2.25
2023-05-21T20:28:48.480Z,5.43
2023-05-21T20:31:17.074Z,6.18
2023-05-21T20:33:46.575Z,4.13
2023-05-21T20:36:15.564Z,5.65
2023-05-21T20:38:45.810Z,3.80
2023-05-21T20:41:15.134Z,4.10
2023-05-21T20:43:46.129Z,4.30
2023-05-21T20:46:17.874Z,11.40
2023-05-21T20:48:47.510Z,6.57
2023-05-21T20:51:16.044Z,9.73
2023-05-21T20:53:46.121Z,6.28
2023-05-21T20:56:15.091Z,10.98
2023-05-21T20:58:43.977Z,9.85
2023-05-21T21:01:14.640Z,7.78
2023-05-21T21:03:45.857Z,4.47
2023-05-21T21:06:14.803Z,6.75
2023-05-21T21:08:46.357Z,7.28
2023-05-21T21:11:16.462Z,5.00
2023-05-21T21:13:44.938Z,5.85
2023-05-21T21:16:13.608Z,4.45
2023-05-21T21:18:42.347Z,5.07
2023-05-21T21:21:10.944Z,2.60
2023-05-21T21:23:39.677Z,5.13
2023-05-21T21:26:08.365Z,6.53
2023-05-21T21:28:38.379Z,4.80
2023-05-21T21:31:07.128Z,4.40
2023-05-21T21:33:35.511Z,6.20
2023-05-21T21:36:04.027Z,6.82
2023-05-21T21:38:32.708Z,9.20
2023-05-21T21:41:01.372Z,5.53
2023-05-21T21:43:29.884Z,4.78
2023-05-21T21:46:00.216Z,4.28
2023-05-21T21:48:28.832Z,5.32
2023-05-21T21:50:57.663Z,11.35
2023-05-21T21:53:26.262Z,6.60
2023-05-21T21:55:56.058Z,5.57
2023-05-21T21:58:27.923Z,5.90
2023-05-21T22:00:56.629Z,5.00
2023-05-21T22:03:26.627Z,4.80
2023-05-21T22:05:55.717Z,10.97
2023-05-21T22:08:25.762Z,4.85
2023-05-21T22:10:54.390Z,7.63
2023-05-21T22:13:23.002Z,3.97
2023-05-21T22:15:51.752Z,6.10
2023-05-21T22:18:28.440Z,7.40
2023-05-21T22:21:10.197Z,9.20
2023-05-21T22:23:39.468Z,6.10
2023-05-21T22:26:08.197Z,4.72
2023-05-21T22:28:37.054Z,3.42
2023-05-21T22:31:06.052Z,6.18
2023-05-21T22:33:34.728Z,8.07
2023-05-21T22:36:03.208Z,7.38
2023-05-21T22:38:33.185Z,3.78
2023-05-21T22:41:01.808Z,8.27
2023-05-21T22:43:30.420Z,6.53
2023-05-21T22:45:58.888Z,6.28
2023-05-21T22:48:30.727Z,9.15
2023-05-21T22:50:59.652Z,5.75
2023-05-21T22:53:28.125Z,5.47
2023-05-21T22:55:58.304Z,7.40
2023-05-21T22:58:27.011Z,8.57
2023-05-21T23:00:55.646Z,11.48
2023-05-21T23:03:24.231Z,7.53
2023-05-21T23:05:52.883Z,7.00
2023-05-21T23:08:21.391Z,8.95
2023-05-21T23:10:49.993Z,5.53
2023-05-21T23:13:20.029Z,9.68
2023-05-21T23:15:48.725Z,7.25
2023-05-21T23:18:17.646Z,10.05
2023-05-21T23:20:46.317Z,7.07
2023-05-21T23:23:14.775Z,9.88
2023-05-21T23:25:43.372Z,8.38
2023-05-21T23:28:11.833Z,7.72
2023-05-21T23:30:41.945Z,6.97
2023-05-21T23:33:11.201Z,7.60
2023-05-21T23:35:39.714Z,4.70
2023-05-21T23:38:08.183Z,6.35
2023-05-21T23:40:37.393Z,6.75
2023-05-21T23:43:06.229Z,6.35
2023-05-21T23:45:34.922Z,7.22
2023-05-21T23:48:05.488Z,8.32
2023-05-21T23:50:34.241Z,9.13
2023-05-21T23:53:02.763Z,13.00
2023-05-21T23:55:31.348Z,7.35
2023-05-21T23:57:59.758Z,9.85
